Time;durP1;ratioP1;P1;durP2;ratioP2;P2;SDS_P1;SDS_P2;PMS_P1;PMS_P2;Temp;Humidity;BMP_temperature;BMP_pressure;BME280_temperature;BME280_humidity;BME280_pressure;Samples;Min_cycle;Max_cycle;Signal;HPM_P1;HPM_P2
2021/05/23 00:02:03;;;;;;;7.15;2.35;;;;;;;;;;4907920;29;20079;-56
2021/05/23 00:04:29;;;;;;;7.22;2.20;;;;;;;;;;4907862;29;20044;-56
2021/05/23 00:06:55;;;;;;;10.52;2.85;;;;;;;;;;4907688;29;20040;-57
2021/05/23 00:09:21;;;;;;;5.57;2.53;;;;;;;;;;4908064;29;20079;-57
2021/05/23 00:11:47;;;;;;;9.45;2.17;;;;;;;;;;4909935;29;20724;-58
2021/05/23 00:14:13;;;;;;;8.65;2.33;;;;;;;;;;4916188;29;20051;-57
2021/05/23 00:16:39;;;;;;;8.15;2.53;;;;;;;;;;4916852;29;21057;-55
2021/05/23 00:19:05;;;;;;;8.30;2.60;;;;;;;;;;4919652;29;20040;-56
2021/05/23 00:21:30;;;;;;;5.40;2.20;;;;;;;;;;4918634;29;20040;-57
2021/05/23 00:23:56;;;;;;;10.77;2.97;;;;;;;;;;4916410;29;20151;-56
2021/05/23 00:26:23;;;;;;;13.70;3.33;;;;;;;;;;4917441;29;20244;-57
2021/05/23 00:28:49;;;;;;;4.15;1.95;;;;;;;;;;4918624;29;20046;-60
2021/05/23 00:31:15;;;;;;;9.68;3.55;;;;;;;;;;4920323;29;20043;-59
2021/05/23 00:33:42;;;;;;;7.20;2.28;;;;;;;;;;4912753;29;20066;-61
2021/05/23 00:36:12;;;;;;;6.82;2.33;;;;;;;;;;4914351;29;20456;-59
2021/05/23 00:38:39;;;;;;;4.97;2.35;;;;;;;;;;4905614;29;20903;-59
2021/05/23 00:41:05;;;;;;;5.25;2.22;;;;;;;;;;4915724;29;20067;-62
2021/05/23 00:43:34;;;;;;;10.85;4.18;;;;;;;;;;4896911;29;20190;-59
2021/05/23 00:46:01;;;;;;;7.57;2.67;;;;;;;;;;4915400;29;20127;-59
2021/05/23 00:48:30;;;;;;;9.20;2.80;;;;;;;;;;4914723;29;20063;-60
2021/05/23 00:50:59;;;;;;;7.78;2.90;;;;;;;;;;4905949;29;20050;-59
2021/05/23 00:53:25;;;;;;;8.13;2.90;;;;;;;;;;4895931;29;20033;-59
2021/05/23 00:55:54;;;;;;;8.98;4.38;;;;;;;;;;4904942;29;20051;-59
2021/05/23 00:58:27;;;;;;;11.13;4.00;;;;;;;;;;4916236;29;20043;-62
2021/05/23 01:00:53;;;;;;;8.30;3.78;;;;;;;;;;4899016;29;20136;-59
2021/05/23 01:03:26;;;;;;;8.10;4.75;;;;;;;;;;4907246;29;20134;-59
2021/05/23 01:05:56;;;;;;;10.10;4.82;;;;;;;;;;4916777;29;20107;-58
2021/05/23 01:08:26;;;;;;;8.30;4.82;;;;;;;;;;4897045;29;20492;-59
2021/05/23 01:11:01;;;;;;;12.93;4.72;;;;;;;;;;4909907;29;20083;-58
2021/05/23 01:13:39;;;;;;;11.60;4.90;;;;;;;;;;4917227;29;20123;-58
2021/05/23 01:16:15;;;;;;;10.05;4.78;;;;;;;;;;4897294;29;20076;-60
2021/05/23 01:18:58;;;;;;;8.88;5.22;;;;;;;;;;4911554;28;20502;-59
2021/05/23 01:21:25;;;;;;;;;;;;;;;;;;4914228;29;20134;-60
2021/05/23 01:23:57;;;;;;;10.07;4.78;;;;;;;;;;4905815;29;19923;-59
2021/05/23 01:26:33;;;;;;;12.75;4.97;;;;;;;;;;4913379;29;20569;-57
2021/05/23 01:29:09;;;;;;;12.15;4.60;;;;;;;;;;4909736;29;20323;-58
2021/05/23 01:31:38;;;;;;;8.50;4.50;;;;;;;;;;4911148;29;20043;-59
2021/05/23 01:34:05;;;;;;;10.07;5.18;;;;;;;;;;4913445;29;20044;-60
2021/05/23 01:36:32;;;;;;;9.07;4.75;;;;;;;;;;4902757;29;20720;-59
2021/05/23 01:39:02;;;;;;;9.52;4.90;;;;;;;;;;4915090;29;20586;-60
2021/05/23 01:41:31;;;;;;;13.18;5.18;;;;;;;;;;4915407;29;20043;-59
2021/05/23 01:44:03;;;;;;;9.70;5.60;;;;;;;;;;4915329;29;20187;-58
2021/05/23 01:46:29;;;;;;;9.63;5.72;;;;;;;;;;4916371;29;20048;-58
2021/05/23 01:48:58;;;;;;;10.73;5.40;;;;;;;;;;4895764;29;20048;-57
2021/05/23 01:51:33;;;;;;;10.75;5.30;;;;;;;;;;4903645;29;20042;-57
2021/05/23 01:54:05;;;;;;;8.95;5.15;;;;;;;;;;4886569;29;20543;-58
2021/05/23 01:56:31;;;;;;;8.98;4.63;;;;;;;;;;4899665;28;20040;-56
2021/05/23 01:59:00;;;;;;;12.82;5.28;;;;;;;;;;4912770;28;20106;-58
2021/05/23 02:01:26;;;;;;;8.93;4.88;;;;;;;;;;4909621;29;20048;-60
2021/05/23 02:03:56;;;;;;;9.52;4.90;;;;;;;;;;4892063;29;20039;-58
2021/05/23 02:06:22;;;;;;;12.48;5.13;;;;;;;;;;4911535;29;20546;-59
2021/05/23 02:08:51;;;;;;;6.70;4.00;;;;;;;;;;4912583;29;20060;-58
2021/05/23 02:11:20;;;;;;;10.48;5.05;;;;;;;;;;4873700;29;20051;-55
2021/05/23 02:13:53;;;;;;;9.18;4.85;;;;;;;;;;4897089;29;20131;-58
2021/05/23 02:16:20;;;;;;;7.93;4.63;;;;;;;;;;4904771;29;20048;-57
2021/05/23 02:18:49;;;;;;;12.75;4.85;;;;;;;;;;4901906;28;20435;-60
2021/05/23 02:21:15;;;;;;;11.02;4.78;;;;;;;;;;4907730;29;20170;-61
2021/05/23 02:23:51;;;;;;;8.13;4.40;;;;;;;;;;4904516;29;20070;-58
2021/05/23 02:26:17;;;;;;;10.43;4.55;;;;;;;;;;4907462;29;20048;-57
2021/05/23 02:28:43;;;;;;;8.43;4.60;;;;;;;;;;4907439;29;20044;-54
2021/05/23 02:31:12;;;;;;;9.93;4.80;;;;;;;;;;4907462;29;20328;-61
2021/05/23 02:33:38;;;;;;;7.47;4.75;;;;;;;;;;4889231;29;20084;-58
2021/05/23 02:36:05;;;;;;;10.55;4.88;;;;;;;;;;4897717;29;20050;-58
2021/05/23 02:38:34;;;;;;;6.97;4.32;;;;;;;;;;4905295;29;20259;-59
2021/05/23 02:41:06;;;;;;;10.15;5.15;;;;;;;;;;4896959;29;20134;-58
2021/05/23 02:43:32;;;;;;;14.57;5.30;;;;;;;;;;4906288;29;20079;-57
2021/05/23 02:46:01;;;;;;;9.70;4.32;;;;;;;;;;4908419;29;20556;-57
2021/05/23 02:48:27;;;;;;;8.63;5.30;;;;;;;;;;4912634;29;20047;-57
2021/05/23 02:51:02;;;;;;;10.25;5.22;;;;;;;;;;4916004;29;20050;-57
2021/05/23 02:53:29;;;;;;;8.05;5.00;;;;;;;;;;4922459;29;20628;-58
2021/05/23 02:55:55;;;;;;;11.43;6.00;;;;;;;;;;4917754;29;20882;-58
2021/05/23 02:58:21;;;;;;;9.70;5.38;;;;;;;;;;4920658;29;20032;-59
2021/05/23 03:00:47;;;;;;;12.10;4.90;;;;;;;;;;4902595;29;20081;-60
2021/05/23 03:03:28;;;;;;;13.30;5.20;;;;;;;;;;4902227;29;20103;-59
2021/05/23 03:06:00;;;;;;;10.00;5.60;;;;;;;;;;4898514;29;20517;-57
2021/05/23 03:08:26;;;;;;;12.80;5.75;;;;;;;;;;4912094;29;20106;-58
2021/05/23 03:10:54;;;;;;;15.80;6.03;;;;;;;;;;4918212;29;20052;-57
2021/05/23 03:13:23;;;;;;;15.48;6.20;;;;;;;;;;4917785;28;20044;-58
2021/05/23 03:15:55;;;;;;;8.25;5.85;;;;;;;;;;4920299;29;20502;-59
2021/05/23 03:18:27;;;;;;;10.43;5.68;;;;;;;;;;4917343;29;20047;-59
2021/05/23 03:20:56;;;;;;;10.85;5.63;;;;;;;;;;4919927;29;20039;-59
2021/05/23 03:23:22;;;;;;;11.60;5.93;;;;;;;;;;4918207;29;20051;-58
2021/05/23 03:25:51;;;;;;;14.88;5.88;;;;;;;;;;4901072;29;20152;-57
2021/05/23 03:28:17;;;;;;;14.18;5.95;;;;;;;;;;4894283;29;20044;-59
2021/05/23 03:30:46;;;;;;;16.85;6.18;;;;;;;;;;4887303;29;20138;-58
2021/05/23 03:33:14;;;;;;;9.95;6.28;;;;;;;;;;4886455;29;20120;-59
2021/05/23 03:35:40;;;;;;;13.27;6.13;;;;;;;;;;4892012;29;20200;-58
2021/05/23 03:38:10;;;;;;;16.75;5.97;;;;;;;;;;4893533;29;20667;-58
2021/05/23 03:40:38;;;;;;;10.05;5.97;;;;;;;;;;4888767;29;20153;-56
2021/05/23 03:43:05;;;;;;;12.00;5.60;;;;;;;;;;4890696;29;20075;-57
2021/05/23 03:45:31;;;;;;;9.77;5.78;;;;;;;;;;4892266;29;20064;-58
2021/05/23 03:47:57;;;;;;;11.23;5.10;;;;;;;;;;4892605;29;20424;-59
2021/05/23 03:50:24;;;;;;;11.45;5.30;;;;;;;;;;4891780;29;20377;-57
2021/05/23 03:52:51;;;;;;;11.45;5.55;;;;;;;;;;4887659;29;20416;-59
2021/05/23 03:55:17;;;;;;;12.25;5.55;;;;;;;;;;4884632;29;20128;-57
2021/05/23 03:57:46;;;;;;;9.82;5.78;;;;;;;;;;4863334;29;20198;-59
2021/05/23 04:00:14;;;;;;;9.57;5.32;;;;;;;;;;4881222;29;20044;-58
2021/05/23 04:02:40;;;;;;;10.88;5.38;;;;;;;;;;4881261;29;20181;-60
2021/05/23 04:05:07;;;;;;;9.25;5.65;;;;;;;;;;4889298;29;20414;-59
2021/05/23 04:07:33;;;;;;;9.15;5.82;;;;;;;;;;4897364;29;20095;-56
2021/05/23 04:09:59;;;;;;;11.13;6.03;;;;;;;;;;4905569;29;20043;-57
2021/05/23 04:12:40;;;;;;;9.32;5.32;;;;;;;;;;4892076;28;20130;-59
2021/05/23 04:15:10;;;;;;;8.43;5.32;;;;;;;;;;4901882;29;20047;-55
2021/05/23 04:17:36;;;;;;;13.40;5.82;;;;;;;;;;4899237;29;20055;-58
2021/05/23 04:20:06;;;;;;;10.30;5.40;;;;;;;;;;4897696;29;20723;-57
2021/05/23 04:22:32;;;;;;;11.07;5.40;;;;;;;;;;4898757;29;20063;-56
2021/05/23 04:25:00;;;;;;;11.23;5.20;;;;;;;;;;4907414;29;20051;-55
2021/05/23 04:27:30;;;;;;;9.77;4.88;;;;;;;;;;4896264;29;20031;-57
2021/05/23 04:29:57;;;;;;;12.85;5.95;;;;;;;;;;4908136;29;20507;-57
2021/05/23 04:32:28;;;;;;;8.93;5.47;;;;;;;;;;4899213;29;21276;-58
2021/05/23 04:34:57;;;;;;;10.07;5.22;;;;;;;;;;4897468;29;20388;-58
2021/05/23 04:37:23;;;;;;;7.07;4.32;;;;;;;;;;4896818;29;20039;-54
2021/05/23 04:39:58;;;;;;;8.70;5.03;;;;;;;;;;4906940;29;20044;-57
2021/05/23 04:42:24;;;;;;;11.40;4.93;;;;;;;;;;4909789;29;20494;-54
2021/05/23 04:44:53;;;;;;;12.88;5.07;;;;;;;;;;4911149;29;20525;-56
2021/05/23 04:47:24;;;;;;;11.50;4.97;;;;;;;;;;4910619;29;20085;-56
2021/05/23 04:49:50;;;;;;;11.35;5.38;;;;;;;;;;4910492;29;20044;-54
2021/05/23 04:52:19;;;;;;;9.90;5.43;;;;;;;;;;4909926;29;20040;-55
2021/05/23 04:54:45;;;;;;;9.00;5.25;;;;;;;;;;4910655;29;20040;-57
2021/05/23 04:57:14;;;;;;;8.57;5.00;;;;;;;;;;4909100;29;20649;-54
2021/05/23 04:59:40;;;;;;;9.35;4.97;;;;;;;;;;4909426;29;20047;-54
2021/05/23 05:02:15;;;;;;;9.98;5.25;;;;;;;;;;4904385;29;20713;-53
2021/05/23 05:04:41;;;;;;;8.90;4.80;;;;;;;;;;4907281;29;20131;-57
2021/05/23 05:07:12;;;;;;;7.70;5.15;;;;;;;;;;4909141;29;20055;-57
2021/05/23 05:09:38;;;;;;;7.20;5.07;;;;;;;;;;4880706;29;20059;-57
2021/05/23 05:12:05;;;;;;;8.32;4.97;;;;;;;;;;4905879;29;20048;-56
2021/05/23 05:14:31;;;;;;;7.43;4.72;;;;;;;;;;4890047;28;20079;-56
2021/05/23 05:16:57;;;;;;;11.80;5.53;;;;;;;;;;4902292;29;20082;-56
2021/05/23 05:19:23;;;;;;;9.85;5.55;;;;;;;;;;4900183;29;20047;-57
2021/05/23 05:21:49;;;;;;;12.35;5.20;;;;;;;;;;4903175;29;20047;-56
2021/05/23 05:24:19;;;;;;;8.68;4.97;;;;;;;;;;4900520;29;20044;-55
2021/05/23 05:26:48;;;;;;;11.65;5.40;;;;;;;;;;4905082;29;20228;-53
2021/05/23 05:29:14;;;;;;;8.82;5.13;;;;;;;;;;4907054;29;20028;-56
2021/05/23 05:31:40;;;;;;;10.98;5.50;;;;;;;;;;4903471;29;20581;-56
2021/05/23 05:34:05;;;;;;;9.52;4.88;;;;;;;;;;4907900;29;20047;-56
2021/05/23 05:36:31;;;;;;;9.35;4.88;;;;;;;;;;4905520;29;20103;-54
2021/05/23 05:38:57;;;;;;;9.57;5.03;;;;;;;;;;4906334;29;20036;-55
2021/05/23 05:41:23;;;;;;;9.23;5.10;;;;;;;;;;4905975;29;20043;-55
2021/05/23 05:43:50;;;;;;;7.80;5.30;;;;;;;;;;4904141;29;20078;-55
2021/05/23 05:46:16;;;;;;;8.75;5.22;;;;;;;;;;4902940;29;20510;-57
2021/05/23 05:48:42;;;;;;;8.05;4.80;;;;;;;;;;4899910;29;20035;-56
2021/05/23 05:51:08;;;;;;;15.05;5.35;;;;;;;;;;4892252;29;20044;-54
2021/05/23 05:53:37;;;;;;;7.85;4.80;;;;;;;;;;4881690;29;20051;-54
2021/05/23 05:56:03;;;;;;;7.80;5.07;;;;;;;;;;4878790;29;20946;-57
2021/05/23 05:58:44;;;;;;;8.02;5.32;;;;;;;;;;4880032;28;20040;-57
2021/05/23 06:01:16;;;;;;;7.40;5.25;;;;;;;;;;4881892;29;20059;-55
2021/05/23 06:03:45;;;;;;;8.48;5.10;;;;;;;;;;4892796;28;20052;-56
2021/05/23 06:06:12;;;;;;;8.93;5.45;;;;;;;;;;4892289;29;20480;-54
2021/05/23 06:08:41;;;;;;;7.43;5.00;;;;;;;;;;4901292;29;20059;-54
2021/05/23 06:11:09;;;;;;;8.45;5.43;;;;;;;;;;4904580;29;20055;-54
2021/05/23 06:13:38;;;;;;;8.38;5.22;;;;;;;;;;4893779;29;20051;-57
2021/05/23 06:16:05;;;;;;;8.77;5.55;;;;;;;;;;4904339;29;20846;-57
2021/05/23 06:18:31;;;;;;;8.98;5.53;;;;;;;;;;4905752;29;20040;-55
2021/05/23 06:20:57;;;;;;;7.25;5.15;;;;;;;;;;4895340;28;20047;-57
2021/05/23 06:23:23;;;;;;;11.48;6.20;;;;;;;;;;4905699;29;20658;-56
2021/05/23 06:25:53;;;;;;;10.98;6.00;;;;;;;;;;4907255;29;20043;-56
2021/05/23 06:28:19;;;;;;;10.25;5.97;;;;;;;;;;4906663;29;20039;-56
2021/05/23 06:30:46;;;;;;;11.23;6.13;;;;;;;;;;4909067;29;20574;-54
2021/05/23 06:33:17;;;;;;;8.55;5.85;;;;;;;;;;4910014;29;20055;-55
2021/05/23 06:35:46;;;;;;;8.20;5.63;;;;;;;;;;4904655;29;20042;-58
2021/05/23 06:38:15;;;;;;;9.85;6.32;;;;;;;;;;4907013;29;20055;-52
2021/05/23 06:40:41;;;;;;;9.45;6.22;;;;;;;;;;4902151;29;20063;-55
2021/05/23 06:43:07;;;;;;;8.18;5.93;;;;;;;;;;4897716;29;20143;-53
2021/05/23 06:45:33;;;;;;;7.97;5.90;;;;;;;;;;4903426;29;20051;-55
2021/05/23 06:48:01;;;;;;;7.53;5.38;;;;;;;;;;4904641;29;20509;-54
2021/05/23 06:50:27;;;;;;;11.20;6.45;;;;;;;;;;4895941;29;22229;-56
2021/05/23 06:52:53;;;;;;;8.75;5.57;;;;;;;;;;4905771;29;20043;-56
2021/05/23 06:55:30;;;;;;;8.68;6.10;;;;;;;;;;4904403;29;20048;-52
2021/05/23 06:57:57;;;;;;;10.13;6.43;;;;;;;;;;4906014;29;20415;-55
2021/05/23 07:00:26;;;;;;;10.30;6.15;;;;;;;;;;4904127;29;20052;-55
2021/05/23 07:03:01;;;;;;;9.18;6.10;;;;;;;;;;4890854;29;20532;-56
2021/05/23 07:05:27;;;;;;;9.57;6.35;;;;;;;;;;4892518;28;20056;-55
2021/05/23 07:07:56;;;;;;;9.55;6.15;;;;;;;;;;4887074;29;20541;-55
2021/05/23 07:10:22;;;;;;;8.88;5.93;;;;;;;;;;4894185;29;20066;-56
2021/05/23 07:12:58;;;;;;;9.18;6.20;;;;;;;;;;4905729;29;20067;-54
2021/05/23 07:15:35;;;;;;;8.15;5.88;;;;;;;;;;4885003;29;20122;-54
2021/05/23 07:18:01;;;;;;;8.02;6.10;;;;;;;;;;4904568;29;20462;-57
2021/05/23 07:20:27;;;;;;;8.63;5.95;;;;;;;;;;4876549;29;20058;-53
2021/05/23 07:22:53;;;;;;;8.07;5.68;;;;;;;;;;4901067;29;20063;-55
2021/05/23 07:25:19;;;;;;;7.28;5.05;;;;;;;;;;4903683;29;20036;-56
2021/05/23 07:27:45;;;;;;;8.38;5.85;;;;;;;;;;4901569;29;20058;-52
2021/05/23 07:30:11;;;;;;;9.27;5.75;;;;;;;;;;4905323;29;20032;-54
2021/05/23 07:32:37;;;;;;;7.85;5.60;;;;;;;;;;4906566;29;20594;-57
2021/05/23 07:35:03;;;;;;;7.32;4.95;;;;;;;;;;4908729;29;20054;-56
2021/05/23 07:37:29;;;;;;;8.30;5.35;;;;;;;;;;4909188;29;20054;-55
2021/05/23 07:39:55;;;;;;;8.13;4.97;;;;;;;;;;4909279;29;20959;-52
2021/05/23 07:42:21;;;;;;;10.48;4.85;;;;;;;;;;4907471;29;20055;-56
2021/05/23 07:44:46;;;;;;;6.93;4.57;;;;;;;;;;4906309;29;20158;-54
2021/05/23 07:47:12;;;;;;;7.68;5.05;;;;;;;;;;4905542;29;20728;-56
2021/05/23 07:49:41;;;;;;;8.43;5.07;;;;;;;;;;4909172;29;20059;-54
2021/05/23 07:52:10;;;;;;;7.60;5.05;;;;;;;;;;4908641;29;20054;-56
2021/05/23 07:54:37;;;;;;;8.32;5.22;;;;;;;;;;4907366;29;20048;-57
2021/05/23 07:57:03;;;;;;;8.20;4.85;;;;;;;;;;4908392;29;20036;-53
2021/05/23 07:59:29;;;;;;;9.80;5.20;;;;;;;;;;4906574;29;20544;-52
2021/05/23 08:01:55;;;;;;;8.90;5.28;;;;;;;;;;4909981;29;20098;-55
2021/05/23 08:04:21;;;;;;;7.97;4.50;;;;;;;;;;4909216;29;20102;-54
2021/05/23 08:06:47;;;;;;;7.28;5.15;;;;;;;;;;4908533;29;21202;-56
2021/05/23 08:09:13;;;;;;;8.40;5.13;;;;;;;;;;4909904;29;20155;-52
2021/05/23 08:11:40;;;;;;;8.02;4.80;;;;;;;;;;4909044;29;20067;-54
2021/05/23 08:14:06;;;;;;;9.52;5.10;;;;;;;;;;4909780;29;20079;-55
2021/05/23 08:16:32;;;;;;;7.97;4.90;;;;;;;;;;4906067;29;20158;-54
2021/05/23 08:18:57;;;;;;;8.93;4.43;;;;;;;;;;4907072;29;20047;-54
2021/05/23 08:21:23;;;;;;;7.50;4.50;;;;;;;;;;4907550;29;20569;-55
2021/05/23 08:23:49;;;;;;;8.85;4.93;;;;;;;;;;4908060;29;20059;-55
2021/05/23 08:26:15;;;;;;;8.25;4.85;;;;;;;;;;4906080;29;20067;-55
2021/05/23 08:28:41;;;;;;;7.50;4.93;;;;;;;;;;4905301;29;20480;-55
2021/05/23 08:31:06;;;;;;;8.75;5.20;;;;;;;;;;4904955;29;20052;-55
2021/05/23 08:33:33;;;;;;;10.57;4.68;;;;;;;;;;4906342;29;20784;-53
2021/05/23 08:35:59;;;;;;;7.20;5.03;;;;;;;;;;4905238;29;20135;-55
2021/05/23 08:38:24;;;;;;;7.88;5.28;;;;;;;;;;4908056;29;20614;-53
2021/05/23 08:40:51;;;;;;;9.30;5.40;;;;;;;;;;4908017;29;20036;-53
2021/05/23 08:43:19;;;;;;;9.65;5.47;;;;;;;;;;4889047;29;20052;-54
2021/05/23 08:45:45;;;;;;;11.90;5.93;;;;;;;;;;4904199;29;20039;-57
2021/05/23 08:48:12;;;;;;;8.07;5.40;;;;;;;;;;4906851;29;20538;-55
2021/05/23 08:50:37;;;;;;;10.13;4.97;;;;;;;;;;4907639;29;20501;-56
2021/05/23 08:53:04;;;;;;;8.95;4.65;;;;;;;;;;4908016;29;21554;-54
2021/05/23 08:55:31;;;;;;;9.25;4.93;;;;;;;;;;4907398;29;20068;-54
2021/05/23 08:57:57;;;;;;;10.02;5.70;;;;;;;;;;4907359;29;20087;-55
2021/05/23 09:00:23;;;;;;;8.55;5.07;;;;;;;;;;4907469;29;20150;-56
2021/05/23 09:02:52;;;;;;;8.43;5.07;;;;;;;;;;4908672;29;20724;-52
2021/05/23 09:05:31;;;;;;;8.45;5.00;;;;;;;;;;4904753;29;20044;-57
2021/05/23 09:07:58;;;;;;;7.32;4.80;;;;;;;;;;4904669;28;20044;-56
2021/05/23 09:10:25;;;;;;;8.13;5.28;;;;;;;;;;4907640;29;20130;-54
2021/05/23 09:12:51;;;;;;;7.93;4.40;;;;;;;;;;4907562;29;20146;-55
2021/05/23 09:15:17;;;;;;;7.57;5.10;;;;;;;;;;4907762;29;20040;-54
2021/05/23 09:17:43;;;;;;;9.38;5.32;;;;;;;;;;4906100;29;20196;-55
2021/05/23 09:20:15;;;;;;;7.20;5.05;;;;;;;;;;4906946;29;20044;-56
2021/05/23 09:22:41;;;;;;;9.10;5.47;;;;;;;;;;4906898;29;20052;-52
2021/05/23 09:25:09;;;;;;;9.48;5.93;;;;;;;;;;4905531;29;20352;-52
2021/05/23 09:27:42;;;;;;;9.60;5.30;;;;;;;;;;4905959;29;20359;-55
2021/05/23 09:30:17;;;;;;;10.20;5.80;;;;;;;;;;4906527;29;20494;-55
2021/05/23 09:32:45;;;;;;;8.88;5.22;;;;;;;;;;4907715;29;20399;-56
2021/05/23 09:35:11;;;;;;;9.15;5.85;;;;;;;;;;4905732;29;20051;-56
2021/05/23 09:37:38;;;;;;;10.30;5.90;;;;;;;;;;4908050;29;20047;-56
2021/05/23 09:40:24;;;;;;;9.50;6.28;;;;;;;;;;4905120;29;20042;-56
2021/05/23 09:42:51;;;;;;;8.73;5.95;;;;;;;;;;4906374;29;20051;-57
2021/05/23 09:45:18;;;;;;;12.27;6.32;;;;;;;;;;4905545;29;20154;-57
2021/05/23 09:47:54;;;;;;;11.25;6.00;;;;;;;;;;4905843;29;20036;-54
2021/05/23 09:50:34;;;;;;;11.52;5.80;;;;;;;;;;4906283;29;20036;-53
2021/05/23 09:53:00;;;;;;;10.35;6.13;;;;;;;;;;4905222;29;20047;-55
2021/05/23 09:55:27;;;;;;;12.85;6.45;;;;;;;;;;4903267;29;20097;-57
2021/05/23 09:57:53;;;;;;;11.45;6.53;;;;;;;;;;4904729;29;20102;-54
2021/05/23 10:00:19;;;;;;;9.35;6.00;;;;;;;;;;4905445;29;20719;-55
2021/05/23 10:02:55;;;;;;;13.40;6.53;;;;;;;;;;4905284;29;20083;-56
2021/05/23 10:05:22;;;;;;;11.07;6.32;;;;;;;;;;4904458;29;20039;-56
2021/05/23 10:07:48;;;;;;;10.75;6.13;;;;;;;;;;4905879;29;20043;-54
2021/05/23 10:10:14;;;;;;;9.07;6.65;;;;;;;;;;4904740;29;20055;-56
2021/05/23 10:12:41;;;;;;;9.30;5.85;;;;;;;;;;4905608;29;20047;-55
2021/05/23 10:15:10;;;;;;;9.43;6.45;;;;;;;;;;4903589;29;20099;-57
2021/05/23 10:17:36;;;;;;;8.90;6.03;;;;;;;;;;4905864;29;21012;-58
2021/05/23 10:20:03;;;;;;;11.70;6.93;;;;;;;;;;4905403;29;20146;-54
2021/05/23 10:22:32;;;;;;;7.97;5.88;;;;;;;;;;4905483;29;20051;-53
2021/05/23 10:25:00;;;;;;;9.63;6.00;;;;;;;;;;4905576;29;20044;-55
2021/05/23 10:27:30;;;;;;;8.63;5.93;;;;;;;;;;4905803;29;21154;-54
2021/05/23 10:29:57;;;;;;;11.63;5.65;;;;;;;;;;4907008;29;20044;-55
2021/05/23 10:32:26;;;;;;;8.85;5.95;;;;;;;;;;4902338;29;20047;-53
2021/05/23 10:34:52;;;;;;;9.77;6.30;;;;;;;;;;4905678;29;20059;-54
2021/05/23 10:37:24;;;;;;;9.10;5.95;;;;;;;;;;4905958;29;20035;-57
2021/05/23 10:39:54;;;;;;;11.32;7.05;;;;;;;;;;4904531;29;20040;-55
2021/05/23 10:42:21;;;;;;;10.43;6.22;;;;;;;;;;4888929;29;20064;-56
2021/05/23 10:44:48;;;;;;;9.60;6.78;;;;;;;;;;4906593;29;20397;-55
2021/05/23 10:47:30;;;;;;;10.75;6.82;;;;;;;;;;4905523;29;20049;-57
2021/05/23 10:49:58;;;;;;;12.00;6.05;;;;;;;;;;4905314;29;20050;-56
2021/05/23 10:52:28;;;;;;;13.68;6.05;;;;;;;;;;4904896;29;20043;-54
2021/05/23 10:55:05;;;;;;;9.77;6.97;;;;;;;;;;4905452;29;20047;-55
2021/05/23 10:57:44;;;;;;;9.35;6.25;;;;;;;;;;4904697;29;20055;-57
2021/05/23 11:00:15;;;;;;;11.18;7.30;;;;;;;;;;4904846;29;20138;-55
2021/05/23 11:02:42;;;;;;;11.15;6.43;;;;;;;;;;4903898;29;20126;-55
2021/05/23 11:05:09;;;;;;;12.77;7.78;;;;;;;;;;4904633;29;20048;-57
2021/05/23 11:07:35;;;;;;;10.13;7.32;;;;;;;;;;4902675;29;20047;-56
2021/05/23 11:10:12;;;;;;;13.45;7.57;;;;;;;;;;4910196;29;20051;-56
2021/05/23 11:12:46;;;;;;;10.48;6.78;;;;;;;;;;4908840;29;20039;-56
2021/05/23 11:15:12;;;;;;;12.55;7.55;;;;;;;;;;4908780;29;20040;-52
2021/05/23 11:17:38;;;;;;;13.63;7.68;;;;;;;;;;4908916;29;20044;-57
2021/05/23 11:20:13;;;;;;;13.65;7.78;;;;;;;;;;4910138;29;20031;-56
2021/05/23 11:22:39;;;;;;;13.15;8.27;;;;;;;;;;4908741;29;20063;-53
2021/05/23 11:25:05;;;;;;;12.98;7.93;;;;;;;;;;4909206;29;20044;-58
2021/05/23 11:27:31;;;;;;;11.68;8.15;;;;;;;;;;4907533;29;20039;-55
2021/05/23 11:29:57;;;;;;;11.23;7.65;;;;;;;;;;4909828;29;20039;-55
2021/05/23 11:32:24;;;;;;;11.93;8.48;;;;;;;;;;4909483;29;20035;-56
2021/05/23 11:34:50;;;;;;;14.07;8.38;;;;;;;;;;4907493;29;20575;-55
2021/05/23 11:37:16;;;;;;;14.35;8.60;;;;;;;;;;4910953;29;20047;-56
2021/05/23 11:39:42;;;;;;;14.40;8.48;;;;;;;;;;4909165;29;20047;-57
2021/05/23 11:42:09;;;;;;;12.27;8.25;;;;;;;;;;4909172;29;20044;-56
2021/05/23 11:44:36;;;;;;;12.73;8.48;;;;;;;;;;4906741;29;20040;-56
2021/05/23 11:47:02;;;;;;;12.35;8.52;;;;;;;;;;4908737;29;20043;-57
2021/05/23 11:49:30;;;;;;;12.43;8.48;;;;;;;;;;4907794;29;20146;-56
2021/05/23 11:51:59;;;;;;;12.20;8.70;;;;;;;;;;4907979;29;20047;-56
2021/05/23 11:54:25;;;;;;;14.43;8.68;;;;;;;;;;4907236;29;20051;-55
2021/05/23 11:56:51;;;;;;;14.30;8.52;;;;;;;;;;4909904;29;20031;-56
2021/05/23 11:59:17;;;;;;;16.00;8.55;;;;;;;;;;4907906;29;20099;-56
2021/05/23 12:01:53;;;;;;;13.95;9.23;;;;;;;;;;4905797;29;20127;-56
2021/05/23 12:04:18;;;;;;;13.10;8.13;;;;;;;;;;4906108;29;20059;-54
2021/05/23 12:06:49;;;;;;;14.40;8.65;;;;;;;;;;4907144;29;20040;-54
2021/05/23 12:09:21;;;;;;;14.38;8.23;;;;;;;;;;4907617;29;20827;-56
2021/05/23 12:11:50;;;;;;;12.45;7.57;;;;;;;;;;4909538;29;20072;-57
2021/05/23 12:14:32;;;;;;;15.15;7.40;;;;;;;;;;4906685;29;20566;-56
2021/05/23 12:16:59;;;;;;;14.10;7.78;;;;;;;;;;4908856;29;20054;-57
2021/05/23 12:19:48;;;;;;;11.80;7.57;;;;;;;;;;4906341;29;20127;-57
2021/05/23 12:22:22;;;;;;;12.85;7.63;;;;;;;;;;4891498;29;20055;-55
2021/05/23 12:24:50;;;;;;;14.48;7.53;;;;;;;;;;4906651;29;20035;-57
2021/05/23 12:27:23;;;;;;;12.18;7.13;;;;;;;;;;4906916;29;20115;-56
2021/05/23 12:29:49;;;;;;;11.90;7.35;;;;;;;;;;4906885;29;20074;-55
2021/05/23 12:32:14;;;;;;;15.15;6.90;;;;;;;;;;4908830;29;20537;-57
2021/05/23 12:34:44;;;;;;;10.57;6.88;;;;;;;;;;4906441;29;20035;-57
2021/05/23 12:37:10;;;;;;;11.23;6.68;;;;;;;;;;4909008;29;20075;-55
2021/05/23 12:39:36;;;;;;;9.82;6.90;;;;;;;;;;4907484;29;20040;-55
2021/05/23 12:42:02;;;;;;;11.45;6.55;;;;;;;;;;4910159;29;20040;-54
2021/05/23 12:44:29;;;;;;;10.27;7.00;;;;;;;;;;4906757;29;20043;-54
2021/05/23 12:46:55;;;;;;;11.00;7.25;;;;;;;;;;4909857;29;20593;-54
2021/05/23 12:49:25;;;;;;;10.57;6.70;;;;;;;;;;4905709;29;20131;-54
2021/05/23 12:51:51;;;;;;;10.50;6.32;;;;;;;;;;4906289;29;20833;-55
2021/05/23 12:54:23;;;;;;;13.05;7.45;;;;;;;;;;4908714;29;20039;-53
2021/05/23 12:56:49;;;;;;;11.70;6.65;;;;;;;;;;4907183;29;20051;-54
2021/05/23 12:59:18;;;;;;;11.32;7.07;;;;;;;;;;4907015;29;20040;-53
2021/05/23 13:01:45;;;;;;;10.45;6.72;;;;;;;;;;4906805;29;20686;-55
2021/05/23 13:04:15;;;;;;;11.63;6.65;;;;;;;;;;4908415;29;20051;-55
2021/05/23 13:06:45;;;;;;;10.38;6.45;;;;;;;;;;4906614;29;20045;-54
2021/05/23 13:09:11;;;;;;;11.70;7.20;;;;;;;;;;4908381;29;20419;-54
2021/05/23 13:11:46;;;;;;;10.77;6.63;;;;;;;;;;4908298;29;20043;-53
2021/05/23 13:14:13;;;;;;;9.10;6.03;;;;;;;;;;4909071;29;20044;-56
2021/05/23 13:16:45;;;;;;;9.95;6.18;;;;;;;;;;4907858;29;20128;-54
2021/05/23 13:19:12;;;;;;;8.80;5.82;;;;;;;;;;4906924;29;20486;-55
2021/05/23 13:21:38;;;;;;;9.63;5.60;;;;;;;;;;4907357;29;20059;-56
2021/05/23 13:24:04;;;;;;;11.77;5.07;;;;;;;;;;4905516;29;20056;-58
2021/05/23 13:26:29;;;;;;;12.57;6.10;;;;;;;;;;4906105;29;20039;-59
2021/05/23 13:28:55;;;;;;;10.35;6.10;;;;;;;;;;4908507;29;20585;-59
2021/05/23 13:31:21;;;;;;;8.75;5.72;;;;;;;;;;4905702;29;20119;-58
2021/05/23 13:33:47;;;;;;;9.07;6.20;;;;;;;;;;4906241;29;20577;-59
2021/05/23 13:36:14;;;;;;;8.68;5.60;;;;;;;;;;4906292;29;20066;-57
2021/05/23 13:38:40;;;;;;;8.77;5.70;;;;;;;;;;4907325;29;20047;-56
2021/05/23 13:41:06;;;;;;;9.40;5.55;;;;;;;;;;4906208;29;20384;-57
2021/05/23 13:43:33;;;;;;;8.40;5.43;;;;;;;;;;4907563;29;20044;-55
2021/05/23 13:45:59;;;;;;;8.95;5.85;;;;;;;;;;4907509;29;20152;-57
2021/05/23 13:48:25;;;;;;;8.98;5.65;;;;;;;;;;4904164;29;20193;-58
2021/05/23 13:50:51;;;;;;;9.15;5.78;;;;;;;;;;4907697;29;20498;-58
2021/05/23 13:53:17;;;;;;;9.57;5.80;;;;;;;;;;4906394;29;20048;-57
2021/05/23 13:55:43;;;;;;;10.35;5.88;;;;;;;;;;4907041;29;20035;-56
2021/05/23 13:58:09;;;;;;;8.50;5.47;;;;;;;;;;4906050;29;20442;-56
2021/05/23 14:00:35;;;;;;;10.13;5.80;;;;;;;;;;4905671;29;20403;-57
2021/05/23 14:03:21;;;;;;;8.57;5.50;;;;;;;;;;4906848;29;20121;-56
2021/05/23 14:05:46;;;;;;;9.60;5.72;;;;;;;;;;4897493;29;20909;-56
2021/05/23 14:08:13;;;;;;;11.10;5.82;;;;;;;;;;4905692;29;20128;-58
2021/05/23 14:10:39;;;;;;;7.93;5.18;;;;;;;;;;4905313;29;20048;-57
2021/05/23 14:13:05;;;;;;;11.38;5.68;;;;;;;;;;4906441;29;20162;-59
2021/05/23 14:15:31;;;;;;;9.10;5.20;;;;;;;;;;4904808;29;20048;-58
2021/05/23 14:17:57;;;;;;;9.98;5.35;;;;;;;;;;4904328;29;20174;-56
2021/05/23 14:20:26;;;;;;;9.68;5.43;;;;;;;;;;4904933;29;20578;-56
2021/05/23 14:22:55;;;;;;;10.52;5.53;;;;;;;;;;4905952;29;20185;-56
2021/05/23 14:25:22;;;;;;;9.43;5.55;;;;;;;;;;4905048;29;20503;-55
2021/05/23 14:27:48;;;;;;;9.52;5.13;;;;;;;;;;4904500;29;20063;-54
2021/05/23 14:30:14;;;;;;;14.40;5.53;;;;;;;;;;4906445;29;20044;-56
2021/05/23 14:32:41;;;;;;;10.93;5.72;;;;;;;;;;4904112;29;20447;-53
2021/05/23 14:35:06;;;;;;;10.50;5.28;;;;;;;;;;4905020;29;20040;-57
2021/05/23 14:37:32;;;;;;;8.40;5.75;;;;;;;;;;4903222;29;20107;-52
2021/05/23 14:39:59;;;;;;;9.73;5.70;;;;;;;;;;4902485;29;20836;-56
2021/05/23 14:42:25;;;;;;;11.23;5.80;;;;;;;;;;4902906;29;20051;-52
2021/05/23 14:44:51;;;;;;;11.07;5.10;;;;;;;;;;4905123;29;20492;-55